Time;durP1;ratioP1;P1;durP2;ratioP2;P2;SDS_P1;SDS_P2;PMS_P1;PMS_P2;Temp;Humidity;BMP_temperature;BMP_pressure;BME280_temperature;BME280_humidity;BME280_pressure;Samples;Min_cycle;Max_cycle;Signal;HPM_P1;HPM_P2
2023/07/28 00:02:21;;;;;;;3.70;2.30;;;;;;;25.89;49.44;99020.45;108313;1251;59560;-71
2023/07/28 00:04:50;;;;;;;3.00;2.20;;;;;;;25.86;49.56;99016.66;108288;1253;73025;-68
2023/07/28 00:07:17;;;;;;;4.80;2.50;;;;;;;25.89;49.63;99018.21;108368;1251;71092;-70
2023/07/28 00:09:45;;;;;;;4.60;2.50;;;;;;;26.01;49.40;99020.79;108425;1252;72657;-69
2023/07/28 00:12:12;;;;;;;3.10;2.70;;;;;;;26.07;48.99;99016.78;108298;1251;60122;-69
2023/07/28 00:14:40;;;;;;;5.20;2.60;;;;;;;26.19;48.97;99019.33;108160;1251;62025;-70
2023/07/28 00:17:07;;;;;;;2.80;2.50;;;;;;;26.11;48.90;99018.26;108262;1251;71754;-70
2023/07/28 00:19:34;;;;;;;7.80;2.90;;;;;;;26.07;49.13;99019.88;108267;1251;68711;-69
2023/07/28 00:22:02;;;;;;;5.60;3.00;;;;;;;25.93;49.42;99015.25;108134;1251;72406;-69
2023/07/28 00:24:29;;;;;;;3.20;2.90;;;;;;;25.94;49.38;99009.20;108173;1251;62300;-70
2023/07/28 00:26:57;;;;;;;5.70;3.00;;;;;;;25.75;49.80;99002.45;108276;1251;60087;-68
2023/07/28 00:29:24;;;;;;;3.20;2.60;;;;;;;25.81;49.62;99004.88;108059;1251;73014;-70
2023/07/28 00:31:52;;;;;;;4.40;2.70;;;;;;;25.78;49.97;99003.66;108189;1251;70441;-70
2023/07/28 00:34:20;;;;;;;7.50;2.90;;;;;;;25.90;49.71;98999.98;108211;1251;72616;-69
2023/07/28 00:36:47;;;;;;;6.60;3.20;;;;;;;26.01;49.41;99000.98;108191;1254;61809;-70
2023/07/28 00:39:15;;;;;;;3.60;3.20;;;;;;;25.72;50.14;98999.58;108222;1251;59404;-70
2023/07/28 00:41:42;;;;;;;6.60;3.20;;;;;;;25.78;50.21;99001.95;108319;1251;71814;-69
2023/07/28 00:44:10;;;;;;;3.60;3.10;;;;;;;25.73;50.30;99002.27;108258;1251;70119;-70
2023/07/28 00:46:37;;;;;;;5.30;2.80;;;;;;;26.14;49.64;99004.85;108204;1254;72603;-70
2023/07/28 00:49:05;;;;;;;3.40;3.10;;;;;;;26.20;49.47;99001.98;108089;1251;60405;-70
2023/07/28 00:51:32;;;;;;;5.50;3.30;;;;;;;26.24;49.43;98999.84;108073;1251;60441;-69
2023/07/28 00:54:01;;;;;;;4.40;3.20;;;;;;;26.07;49.60;98995.10;108052;1251;73019;-70
2023/07/28 00:56:29;;;;;;;4.40;3.20;;;;;;;25.21;51.37;98996.05;107939;1251;69959;-69
2023/07/28 00:58:57;;;;;;;4.30;3.50;;;;;;;25.11;51.88;98997.55;108137;1254;72935;-70
2023/07/28 01:01:24;;;;;;;3.90;3.40;;;;;;;25.47;51.19;98994.55;108292;1251;60484;-70
2023/07/28 01:03:51;;;;;;;4.90;3.40;;;;;;;25.80;50.52;98999.41;108203;1251;60173;-69
2023/07/28 01:06:57;;;;;;;5.50;3.40;;;;;;;25.72;50.72;99002.58;108179;1252;73040;-69
2023/07/28 01:09:29;;;;;;;5.10;3.80;;;;;;;25.80;50.54;99005.68;108115;1251;69245;-69
2023/07/28 01:11:57;;;;;;;4.10;2.90;;;;;;;25.67;50.88;99002.70;108162;1251;72830;-69
2023/07/28 01:14:25;;;;;;;5.20;3.70;;;;;;;25.36;51.31;99006.26;108261;1251;60615;-69
2023/07/28 01:16:52;;;;;;;6.80;3.80;;;;;;;25.28;51.55;99015.98;108285;1251;59957;-68
2023/07/28 01:19:20;;;;;;;8.10;4.20;;;;;;;25.26;51.82;99015.68;108222;1251;73148;-67
2023/07/28 01:21:53;;;;;;;6.80;4.20;;;;;;;25.16;51.85;99013.79;108284;1251;69962;-68
2023/07/28 01:24:29;;;;;;;6.00;4.30;;;;;;;25.15;51.95;99015.91;108257;1251;71684;-67
2023/07/28 01:26:57;;;;;;;5.70;4.20;;;;;;;25.14;51.94;99016.02;108237;1251;62075;-69
2023/07/28 01:29:25;;;;;;;6.20;4.50;;;;;;;25.10;52.09;99020.23;108118;1251;59401;-72
2023/07/28 01:31:52;;;;;;;6.60;4.40;;;;;;;25.09;52.22;99026.81;108256;1256;73034;-72
2023/07/28 01:34:20;;;;;;;5.90;4.50;;;;;;;25.25;51.84;99035.10;108264;1251;70466;-68
2023/07/28 01:36:47;;;;;;;5.50;4.50;;;;;;;25.44;51.38;99034.67;108183;1251;73055;-70
2023/07/28 01:39:14;;;;;;;6.30;4.80;;;;;;;25.55;51.12;99040.92;108106;1253;61753;-68
2023/07/28 01:41:44;;;;;;;5.80;4.50;;;;;;;25.50;51.21;99044.73;108256;1251;60094;-68
2023/07/28 01:44:11;;;;;;;9.20;4.60;;;;;;;25.37;51.53;99046.37;108128;1251;71506;-67
2023/07/28 01:46:39;;;;;;;6.80;4.70;;;;;;;25.45;51.39;99047.33;108153;1251;70698;-67
2023/07/28 01:49:07;;;;;;;7.30;4.90;;;;;;;25.60;50.95;99046.79;108234;1251;71739;-69
2023/07/28 01:51:34;;;;;;;6.00;4.30;;;;;;;25.57;50.88;99052.88;108134;1254;60378;-68
2023/07/28 01:54:02;;;;;;;7.20;4.90;;;;;;;25.61;50.82;99055.50;108140;1253;60276;-69
2023/07/28 01:56:29;;;;;;;8.10;4.70;;;;;;;25.68;50.51;99052.65;108186;1252;71830;-69
2023/07/28 01:58:58;;;;;;;10.00;4.70;;;;;;;25.63;50.78;99055.86;108100;1254;70270;-69
2023/07/28 02:01:25;;;;;;;7.50;4.20;;;;;;;25.58;50.74;99057.48;108083;1256;72655;-70
2023/07/28 02:03:53;;;;;;;10.80;4.90;;;;;;;25.64;50.60;99062.36;108096;1254;61577;-71
2023/07/28 02:06:20;;;;;;;7.20;4.80;;;;;;;25.52;50.87;99059.57;108124;1252;59494;-69
2023/07/28 02:08:48;;;;;;;5.50;4.60;;;;;;;25.49;50.91;99056.91;108196;1253;71790;-68
2023/07/28 02:11:15;;;;;;;9.30;5.00;;;;;;;25.63;50.58;99061.22;108128;1254;69934;-70
2023/07/28 02:13:43;;;;;;;9.20;5.10;;;;;;;25.53;50.73;99065.20;108122;1254;72623;-70
2023/07/28 02:16:13;;;;;;;9.10;5.10;;;;;;;25.38;51.09;99073.48;108059;1254;60648;-71
2023/07/28 02:18:41;;;;;;;8.00;5.30;;;;;;;25.33;51.31;99076.20;108051;1254;60289;-69
2023/07/28 02:21:08;;;;;;;13.20;5.10;;;;;;;25.15;51.52;99074.98;108066;1254;73882;-72
2023/07/28 02:23:36;;;;;;;8.80;5.40;;;;;;;25.29;51.31;99079.13;107970;1253;68687;-71
2023/07/28 02:26:03;;;;;;;9.50;4.90;;;;;;;25.48;50.93;99079.73;108003;1254;71249;-71
2023/07/28 02:28:31;;;;;;;8.20;5.30;;;;;;;25.44;50.89;99086.35;108032;1253;61628;-69
2023/07/28 02:30:58;;;;;;;7.80;5.30;;;;;;;25.61;50.41;99083.13;108000;1253;60341;-70
2023/07/28 02:33:29;;;;;;;14.40;5.80;;;;;;;25.57;50.60;99087.83;107888;1253;73819;-70
2023/07/28 02:35:56;;;;;;;8.40;5.20;;;;;;;25.71;50.23;99084.05;107998;1253;70580;-70
2023/07/28 02:38:24;;;;;;;8.40;5.10;;;;;;;25.64;50.52;99086.35;107922;1254;72656;-70
2023/07/28 02:40:51;;;;;;;10.30;5.50;;;;;;;25.68;50.24;99080.70;107976;1253;61597;-70
2023/07/28 02:43:19;;;;;;;8.60;5.80;;;;;;;25.58;50.50;99077.35;108034;1254;60460;-69
2023/07/28 02:45:59;;;;;;;10.10;6.10;;;;;;;25.60;50.32;99081.98;107967;1254;71870;-70
2023/07/28 02:48:27;;;;;;;11.10;5.70;;;;;;;25.67;50.36;99085.89;107962;1253;68257;-70
2023/07/28 02:50:54;;;;;;;10.20;5.60;;;;;;;25.83;49.97;99083.83;107923;1253;73202;-69
2023/07/28 02:53:21;;;;;;;8.00;5.30;;;;;;;25.89;49.77;99086.04;108013;1259;60361;-70
2023/07/28 02:55:49;;;;;;;6.50;5.40;;;;;;;25.96;49.64;99082.11;107992;1259;61072;-70
2023/07/28 02:58:16;;;;;;;9.10;5.90;;;;;;;26.03;49.40;99081.33;108050;1253;72667;-69
2023/07/28 03:00:44;;;;;;;10.70;5.60;;;;;;;26.10;49.23;99081.73;107925;1253;70190;-70
2023/07/28 03:03:13;;;;;;;11.10;5.30;;;;;;;25.96;49.55;99087.77;108063;1253;72664;-72
2023/07/28 03:05:41;;;;;;;8.70;5.60;;;;;;;25.81;49.90;99090.98;108032;1254;61884;-70
2023/07/28 03:08:37;;;;;;;7.60;5.50;;;;;;;25.58;50.20;99095.93;107926;1254;60472;-69
2023/07/28 03:11:34;;;;;;;8.30;5.00;;;;;;;25.55;50.39;99097.50;108076;1257;73779;-69
2023/07/28 03:14:01;;;;;;;7.40;5.00;;;;;;;25.43;50.66;99098.59;108062;1254;68804;-68
2023/07/28 03:16:29;;;;;;;9.40;5.70;;;;;;;25.31;50.86;99102.87;108045;1254;72716;-69
2023/07/28 03:18:56;;;;;;;7.40;5.30;;;;;;;25.35;50.79;99101.83;108104;1252;61638;-71
2023/07/28 03:21:24;;;;;;;12.40;5.80;;;;;;;25.34;50.89;99112.89;107994;1252;60364;-69
2023/07/28 03:23:53;;;;;;;7.60;5.10;;;;;;;25.52;50.56;99117.30;108123;1254;73940;-69
2023/07/28 03:26:20;;;;;;;7.80;5.00;;;;;;;25.62;50.21;99117.90;108069;1258;69011;-71
2023/07/28 03:28:47;;;;;;;8.50;5.50;;;;;;;25.40;50.46;99125.63;108137;1254;71445;-69
2023/07/28 03:31:14;;;;;;;9.50;5.30;;;;;;;25.44;50.40;99122.84;108162;1252;62527;-70
2023/07/28 03:33:42;;;;;;;10.10;5.40;;;;;;;25.73;49.82;99125.83;108218;1254;59685;-71
2023/07/28 03:36:09;;;;;;;7.00;5.00;;;;;;;25.42;50.23;99131.36;108096;1259;72561;-71
2023/07/28 03:38:37;;;;;;;6.20;4.30;;;;;;;25.29;50.56;99131.44;108119;1253;69156;-68
2023/07/28 03:41:06;;;;;;;8.10;4.80;;;;;;;25.32;50.45;99130.05;108073;1254;72501;-70
2023/07/28 03:43:34;;;;;;;6.50;5.00;;;;;;;25.51;50.17;99129.14;108060;1252;60453;-70
2023/07/28 03:46:01;;;;;;;10.80;5.40;;;;;;;25.47;50.26;99130.47;108054;1253;60508;-69
2023/07/28 03:48:29;;;;;;;7.70;5.50;;;;;;;25.53;50.16;99130.30;108102;1253;75586;-68
2023/07/28 03:50:57;;;;;;;6.80;5.20;;;;;;;25.70;50.01;99130.88;108203;1254;68226;-71
2023/07/28 03:53:24;;;;;;;6.90;4.90;;;;;;;25.69;49.95;99130.39;108106;1252;71253;-69
2023/07/28 03:55:52;;;;;;;9.30;5.30;;;;;;;25.75;50.01;99132.26;108009;1253;60388;-69
2023/07/28 03:58:19;;;;;;;7.70;5.20;;;;;;;25.86;49.72;99129.73;108192;1254;60440;-70
2023/07/28 04:00:47;;;;;;;9.60;5.50;;;;;;;25.72;49.85;99128.40;108048;1253;72696;-69
2023/07/28 04:03:15;;;;;;;10.20;5.20;;;;;;;25.80;49.79;99127.75;108093;1252;69981;-71
2023/07/28 04:05:42;;;;;;;9.60;5.10;;;;;;;25.89;49.65;99133.51;108140;1254;71632;-70
2023/07/28 04:08:09;;;;;;;8.00;5.20;;;;;;;25.74;50.05;99133.95;108022;1257;61943;-70
2023/07/28 04:10:37;;;;;;;6.50;5.00;;;;;;;25.59;50.55;99138.34;108108;1253;60315;-70
2023/07/28 04:13:05;;;;;;;6.30;4.90;;;;;;;25.74;50.25;99140.24;108115;1257;73927;-69
2023/07/28 04:15:32;;;;;;;6.40;4.90;;;;;;;25.79;50.18;99138.23;108075;1254;70400;-69
2023/07/28 04:17:59;;;;;;;7.10;4.70;;;;;;;25.80;50.01;99141.02;108045;1257;72605;-71
2023/07/28 04:20:27;;;;;;;5.40;4.30;;;;;;;25.79;49.71;99137.77;108057;1254;60807;-70
2023/07/28 04:22:54;;;;;;;6.00;4.80;;;;;;;26.02;49.23;99140.24;108034;1253;60841;-69
2023/07/28 04:25:22;;;;;;;8.80;5.00;;;;;;;26.09;49.16;99140.52;108035;1253;71735;-69
2023/07/28 04:27:50;;;;;;;8.60;4.50;;;;;;;25.89;49.22;99138.87;108071;1254;70313;-69
2023/07/28 04:30:17;;;;;;;8.10;4.70;;;;;;;25.82;49.56;99139.13;108037;1254;72434;-68
2023/07/28 04:32:45;;;;;;;10.10;4.80;;;;;;;26.03;49.05;99138.73;108021;1258;63153;-71
2023/07/28 04:35:16;;;;;;;7.60;4.90;;;;;;;26.10;48.89;99140.22;108178;1252;60223;-71
2023/07/28 04:37:57;;;;;;;8.50;4.60;;;;;;;26.18;48.68;99139.64;108049;1254;71565;-70
2023/07/28 04:40:44;;;;;;;8.40;4.60;;;;;;;25.85;48.98;99130.38;107983;1253;70246;-70
2023/07/28 04:43:13;;;;;;;8.00;4.90;;;;;;;25.51;49.94;99132.33;108112;1254;71950;-70
2023/07/28 04:45:41;;;;;;;7.80;4.60;;;;;;;25.93;49.01;99136.66;107989;1253;60398;-70
2023/07/28 04:48:13;;;;;;;7.60;4.60;;;;;;;26.13;48.32;99138.78;108134;1253;60328;-71
2023/07/28 04:50:40;;;;;;;14.60;4.70;;;;;;;26.04;48.42;99138.58;107994;1254;73797;-70
2023/07/28 04:53:34;;;;;;;8.20;4.80;;;;;;;25.92;48.66;99136.58;107867;1254;70298;-71
2023/07/28 04:56:17;;;;;;;7.90;4.40;;;;;;;25.95;48.66;99137.27;108074;1254;71389;-70
2023/07/28 04:58:45;;;;;;;6.30;4.40;;;;;;;25.91;48.97;99135.73;107953;1254;60924;-70
2023/07/28 05:01:13;;;;;;;6.50;4.40;;;;;;;26.07;48.61;99135.14;107982;1254;60561;-70
2023/07/28 05:03:44;;;;;;;6.30;4.40;;;;;;;25.95;48.90;99133.92;108039;1253;72784;-70
2023/07/28 05:06:18;;;;;;;7.80;4.70;;;;;;;25.89;49.04;99136.69;108035;1253;71530;-70
2023/07/28 05:08:45;;;;;;;8.50;4.20;;;;;;;26.06;48.71;99133.01;108050;1254;72329;-68
2023/07/28 05:11:13;;;;;;;9.90;4.70;;;;;;;26.13;48.57;99129.60;108030;1252;60755;-69
2023/07/28 05:13:41;;;;;;;10.20;4.90;;;;;;;26.27;48.34;99131.58;107978;1253;60457;-70
2023/07/28 05:16:08;;;;;;;7.90;4.50;;;;;;;26.36;48.27;99132.88;108023;1254;73829;-70
2023/07/28 05:18:56;;;;;;;9.80;4.50;;;;;;;26.38;48.15;99138.37;107733;1253;70251;-70
2023/07/28 05:21:46;;;;;;;8.20;4.10;;;;;;;26.41;47.91;99136.92;107770;1256;72702;-69
2023/07/28 05:24:14;;;;;;;5.70;3.70;;;;;;;26.30;47.77;99142.02;107972;1254;61647;-70
2023/07/28 05:26:42;;;;;;;8.60;4.30;;;;;;;26.41;47.81;99141.23;107989;1254;60350;-70
2023/07/28 05:29:09;;;;;;;7.80;4.20;;;;;;;26.40;47.63;99142.39;108063;1254;73903;-71
2023/07/28 05:31:37;;;;;;;5.80;4.00;;;;;;;26.50;47.30;99147.74;107948;1254;68919;-68
2023/07/28 05:34:12;;;;;;;8.70;4.30;;;;;;;26.48;47.05;99153.73;107937;1254;72674;-69
2023/07/28 05:36:39;;;;;;;6.40;4.10;;;;;;;26.40;47.19;99155.04;108002;1252;61161;-70
2023/07/28 05:39:07;;;;;;;7.50;4.30;;;;;;;26.45;46.97;99158.17;107972;1253;60387;-69
2023/07/28 05:41:39;;;;;;;10.40;5.00;;;;;;;26.52;46.77;99160.95;107904;1254;72665;-69
2023/07/28 05:44:07;;;;;;;4.80;3.80;;;;;;;26.42;46.55;99163.23;108081;1254;69416;-72
2023/07/28 05:46:35;;;;;;;6.80;3.90;;;;;;;26.36;46.59;99166.67;108004;1259;71388;-70
2023/07/28 05:49:02;;;;;;;6.40;4.20;;;;;;;26.44;46.45;99170.06;107920;1252;62130;-70
2023/07/28 05:51:30;;;;;;;7.50;4.20;;;;;;;26.47;46.73;99167.50;108037;1253;60305;-71
2023/07/28 05:53:58;;;;;;;6.60;4.40;;;;;;;26.57;46.87;99171.91;107977;1254;73817;-70
2023/07/28 05:56:25;;;;;;;10.80;7.30;;;;;;;26.79;46.57;99173.93;108029;1254;69979;-69
2023/07/28 05:58:52;;;;;;;7.90;3.90;;;;;;;26.89;46.69;99177.06;107974;1257;72703;-71
2023/07/28 06:01:20;;;;;;;8.00;3.60;;;;;;;26.99;45.93;99177.30;108027;1256;60381;-67
2023/07/28 06:04:06;;;;;;;5.20;3.90;;;;;;;27.27;45.34;99173.71;107975;1254;60313;-69
2023/07/28 06:06:39;;;;;;;8.20;3.90;;;;;;;27.50;45.15;99178.88;107940;1254;74431;-70
2023/07/28 06:09:07;;;;;;;4.10;3.40;;;;;;;27.82;44.50;99176.77;107994;1254;70464;-69
2023/07/28 06:11:35;;;;;;;4.80;3.20;;;;;;;27.37;45.61;99179.55;107980;1255;71290;-70
2023/07/28 06:14:03;;;;;;;6.90;3.50;;;;;;;27.67;45.00;99176.04;108108;1259;60456;-70
2023/07/28 06:16:34;;;;;;;8.20;3.30;;;;;;;27.93;44.48;99174.69;108038;1253;60369;-70
2023/07/28 06:19:01;;;;;;;5.40;2.80;;;;;;;28.23;43.71;99173.73;107884;1254;73145;-70
2023/07/28 06:21:29;;;;;;;4.90;2.60;;;;;;;28.76;42.49;99178.77;107965;1254;70014;-71
2023/07/28 06:23:56;;;;;;;7.90;2.80;;;;;;;28.66;42.72;99179.49;108039;1254;71789;-67
2023/07/28 06:26:24;;;;;;;8.70;2.50;;;;;;;28.74;42.72;99180.43;108036;1257;61707;-71
2023/07/28 06:28:51;;;;;;;7.30;2.50;;;;;;;29.11;42.23;99182.31;108046;1254;60562;-69
2023/07/28 06:31:18;;;;;;;4.20;2.60;;;;;;;29.38;41.24;99185.77;108039;1254;73841;-70
2023/07/28 06:33:47;;;;;;;6.40;2.60;;;;;;;29.48;40.41;99181.01;108144;1259;70626;-69
2023/07/28 06:36:14;;;;;;;10.30;2.30;;;;;;;29.76;40.02;99188.30;108058;1254;72321;-71
2023/07/28 06:38:44;;;;;;;7.00;2.10;;;;;;;30.26;39.08;99186.67;107929;1256;62153;-70
2023/07/28 06:41:11;;;;;;;5.50;2.10;;;;;;;30.67;38.09;99183.61;108052;1254;60300;-71
2023/07/28 06:43:39;;;;;;;5.10;2.10;;;;;;;31.04;37.16;99188.27;107962;1252;72610;-71
2023/07/28 06:46:07;;;;;;;4.40;2.00;;;;;;;31.02;37.08;99190.27;108006;1259;70607;-70
2023/07/28 06:48:35;;;;;;;5.10;2.10;;;;;;;30.95;36.70;99190.84;107982;1253;72689;-69
2023/07/28 06:51:02;;;;;;;6.50;2.00;;;;;;;31.08;36.35;99187.75;107979;1254;60553;-70
2023/07/28 06:53:29;;;;;;;4.90;1.80;;;;;;;31.76;35.29;99188.35;108036;1254;60096;-70
2023/07/28 06:55:57;;;;;;;3.10;1.60;;;;;;;32.10;34.38;99191.46;108170;1254;73888;-70
2023/07/28 06:58:24;;;;;;;6.10;1.90;;;;;;;32.30;34.15;99189.01;108172;1254;69233;-70
2023/07/28 07:00:53;;;;;;;3.20;1.80;;;;;;;32.44;33.87;99192.18;108037;1254;72681;-69
2023/07/28 07:03:20;;;;;;;6.20;1.90;;;;;;;32.79;33.49;99195.30;108117;1253;60383;-70
2023/07/28 07:05:48;;;;;;;2.90;1.70;;;;;;;32.57;33.49;99197.98;108118;1254;60196;-69
2023/07/28 07:08:15;;;;;;;5.10;1.70;;;;;;;32.35;33.69;99197.29;108063;1253;72705;-69
2023/07/28 07:10:52;;;;;;;6.30;2.10;;;;;;;32.78;33.16;99196.52;108057;1254;70499;-70
2023/07/28 07:13:19;;;;;;;2.70;1.60;;;;;;;33.05;32.54;99200.21;108214;1254;72908;-71
2023/07/28 07:15:47;;;;;;;3.90;1.90;;;;;;;33.30;32.05;99197.10;108086;1254;60348;-71
2023/07/28 07:18:14;;;;;;;7.80;1.90;;;;;;;33.49;32.03;99200.17;108089;1253;59285;-71
2023/07/28 07:20:42;;;;;;;4.20;1.80;;;;;;;33.67;31.71;99201.69;108031;1254;73874;-71
2023/07/28 07:23:10;;;;;;;3.70;1.80;;;;;;;33.80;30.99;99202.81;108054;1252;70098;-69
2023/07/28 07:25:37;;;;;;;5.20;1.90;;;;;;;34.06;30.89;99201.52;108015;1254;72676;-71
2023/07/28 07:28:05;;;;;;;3.30;1.50;;;;;;;34.18;30.27;99205.79;108076;1253;60436;-71
2023/07/28 07:30:33;;;;;;;5.30;1.50;;;;;;;34.20;30.15;99206.73;108080;1253;60205;-68
2023/07/28 07:33:01;;;;;;;7.30;1.70;;;;;;;34.19;29.51;99205.27;108102;1254;64890;-69
2023/07/28 07:35:28;;;;;;;2.80;1.60;;;;;;;34.36;29.08;99201.81;108088;1254;60421;-70
2023/07/28 07:37:55;;;;;;;3.30;1.40;;;;;;;34.72;28.72;99207.04;108050;1254;63708;-69
2023/07/28 07:40:24;;;;;;;3.60;1.80;;;;;;;35.07;28.68;99211.90;108126;1254;60341;-70
2023/07/28 07:42:56;;;;;;;5.90;1.50;;;;;;;35.55;27.95;99214.23;108180;1254;60392;-71
2023/07/28 07:45:23;;;;;;;5.90;1.60;;;;;;;35.44;27.84;99213.56;108104;1252;64907;-71
2023/07/28 07:47:51;;;;;;;6.50;1.50;;;;;;;35.13;28.15;99220.05;108040;1254;60326;-72
2023/07/28 07:50:18;;;;;;;4.60;1.90;;;;;;;35.48;27.79;99221.86;108166;1254;63653;-72
2023/07/28 07:52:45;;;;;;;5.90;2.40;;;;;;;35.92;27.36;99224.08;108144;1257;60348;-71
2023/07/28 07:55:13;;;;;;;3.70;1.40;;;;;;;36.16;27.38;99219.77;108108;1254;60354;-70
2023/07/28 07:57:40;;;;;;;3.30;1.50;;;;;;;36.55;26.13;99216.84;108140;1253;64952;-71
2023/07/28 08:00:08;;;;;;;3.50;1.30;;;;;;;36.89;25.73;99213.95;108001;1254;60320;-72
2023/07/28 08:02:39;;;;;;;13.30;1.90;;;;;;;37.18;25.82;99213.78;108084;1254;63712;-72
2023/07/28 08:05:09;;;;;;;1.90;1.30;;;;;;;37.27;25.17;99220.71;108100;1254;60312;-71
2023/07/28 08:07:37;;;;;;;3.60;1.90;;;;;;;37.33;24.67;99222.11;108138;1252;60366;-71
2023/07/28 08:10:08;;;;;;;5.10;1.70;;;;;;;37.48;24.76;99223.69;108137;1254;64862;-71
2023/07/28 08:12:35;;;;;;;4.50;1.60;;;;;;;37.44;24.75;99228.40;108127;1254;60479;-72
2023/07/28 08:15:03;;;;;;;4.90;1.60;;;;;;;37.30;24.56;99236.29;108145;1254;63722;-71
2023/07/28 08:17:31;;;;;;;4.90;1.60;;;;;;;37.32;24.83;99238.52;108092;1257;59135;-71
2023/07/28 08:19:58;;;;;;;4.20;1.50;;;;;;;37.34;24.68;99235.13;108154;1254;60427;-71
2023/07/28 08:22:25;;;;;;;4.70;1.60;;;;;;;37.21;25.06;99236.82;108053;1258;64203;-71
2023/07/28 08:24:53;;;;;;;4.10;1.30;;;;;;;37.25;24.78;99236.82;108169;1254;60367;-71
2023/07/28 08:27:20;;;;;;;3.50;1.60;;;;;;;37.27;24.84;99241.85;108149;1254;63714;-71
2023/07/28 08:29:48;;;;;;;3.00;1.40;;;;;;;36.80;25.02;99244.30;108177;1254;60411;-71
2023/07/28 08:32:15;;;;;;;3.90;1.50;;;;;;;36.53;25.35;99247.42;108190;1254;60300;-71
2023/07/28 08:34:42;;;;;;;3.90;1.50;;;;;;;36.70;25.12;99250.16;108088;1252;63660;-71
2023/07/28 08:37:10;;;;;;;5.30;1.30;;;;;;;36.90;24.92;99250.27;108151;1256;61475;-71
2023/07/28 08:39:38;;;;;;;3.50;1.80;;;;;;;37.18;24.22;99251.65;108150;1254;62542;-71
2023/07/28 08:42:05;;;;;;;3.20;1.40;;;;;;;37.36;24.08;99253.30;108264;1252;60418;-71
2023/07/28 08:44:33;;;;;;;4.20;1.60;;;;;;;37.36;24.12;99256.70;108208;1253;60353;-71
2023/07/28 08:47:02;;;;;;;4.60;1.40;;;;;;;37.46;23.99;99258.36;108078;1254;64914;-71
2023/07/28 08:49:36;;;;;;;5.50;1.50;;;;;;;37.17;24.07;99256.20;108176;1254;60628;-71
2023/07/28 08:52:04;;;;;;;2.90;1.60;;;;;;;36.78;24.71;99262.39;108163;1254;63889;-72
2023/07/28 08:54:31;;;;;;;4.60;1.20;;;;;;;36.69;24.94;99264.42;108122;1254;60399;-72
2023/07/28 08:56:59;;;;;;;4.80;1.30;;;;;;;36.63;25.16;99269.92;108274;1254;60545;-70
2023/07/28 08:59:28;;;;;;;5.20;1.70;;;;;;;36.65;24.86;99272.41;108146;1254;65529;-71
2023/07/28 09:01:57;;;;;;;4.30;1.50;;;;;;;36.26;25.40;99279.20;107978;1254;61384;-71
2023/07/28 09:04:25;;;;;;;2.20;1.30;;;;;;;36.36;25.33;99283.23;108152;1253;63739;-70
2023/07/28 09:06:53;;;;;;;8.00;1.60;;;;;;;36.22;25.13;99280.27;108147;1255;59124;-70
2023/07/28 09:09:22;;;;;;;3.20;1.30;;;;;;;36.19;25.55;99283.30;108218;1253;60888;-70
2023/07/28 09:11:51;;;;;;;5.00;1.40;;;;;;;36.07;25.15;99287.23;108227;1253;63686;-71
2023/07/28 09:14:19;;;;;;;4.80;1.30;;;;;;;35.94;25.46;99287.12;108073;1253;61802;-70
2023/07/28 09:16:47;;;;;;;2.40;1.20;;;;;;;35.84;25.74;99281.77;108231;1254;63776;-72
2023/07/28 09:19:14;;;;;;;4.80;1.50;;;;;;;35.86;25.82;99285.81;108146;1255;60421;-71
2023/07/28 09:21:43;;;;;;;3.30;1.20;;;;;;;36.00;25.49;99291.48;108107;1253;60303;-69
2023/07/28 09:24:12;;;;;;;3.40;1.50;;;;;;;36.33;24.72;99287.75;108242;1256;65018;-69
2023/07/28 09:26:46;;;;;;;4.00;1.50;;;;;;;36.52;24.62;99292.80;108182;1254;62154;-70
2023/07/28 09:29:18;;;;;;;2.30;1.20;;;;;;;36.53;24.60;99294.40;108147;1254;62531;-71
2023/07/28 09:31:47;;;;;;;2.70;1.60;;;;;;;36.50;24.09;99294.25;108140;1254;60251;-71
2023/07/28 09:34:26;;;;;;;3.50;1.20;;;;;;;36.15;24.65;99296.14;108298;1252;60380;-71
2023/07/28 09:36:57;;;;;;;3.50;1.30;;;;;;;36.06;25.12;99286.64;108125;1254;63867;-70
2023/07/28 09:39:25;;;;;;;4.50;1.30;;;;;;;36.25;24.47;99285.20;108140;1254;60251;-70
2023/07/28 09:41:57;;;;;;;3.00;1.30;;;;;;;36.73;24.29;99283.73;108112;1254;62602;-71
2023/07/28 09:44:25;;;;;;;3.70;1.20;;;;;;;36.92;24.02;99288.52;108107;1257;60309;-70
2023/07/28 09:46:55;;;;;;;2.70;1.20;;;;;;;37.29;23.74;99295.25;108224;1254;60416;-72
2023/07/28 09:49:35;;;;;;;2.60;1.40;;;;;;;37.40;23.56;99295.30;108303;1254;63611;-71
2023/07/28 09:52:08;;;;;;;2.00;1.10;;;;;;;37.55;23.13;99290.73;108047;1258;61891;-70
2023/07/28 09:54:39;;;;;;;2.20;1.20;;;;;;;37.44;22.76;99287.50;108161;1259;62522;-71
2023/07/28 09:57:13;;;;;;;3.00;1.40;;;;;;;37.06;22.97;99288.13;108150;1257;60402;-70
2023/07/28 09:59:41;;;;;;;2.40;1.50;;;;;;;37.13;23.41;99286.61;108134;1254;60441;-71
2023/07/28 10:02:08;;;;;;;3.90;1.20;;;;;;;37.16;23.67;99287.36;108109;1252;75220;-71
2023/07/28 10:04:36;;;;;;;2.50;1.10;;;;;;;37.31;23.27;99283.15;108065;1253;60325;-72
2023/07/28 10:07:04;;;;;;;3.90;1.30;;;;;;;37.19;22.98;99287.67;108026;1254;62528;-70
2023/07/28 10:09:33;;;;;;;3.00;1.30;;;;;;;37.32;23.28;99289.73;107941;1257;59202;-70
2023/07/28 10:12:01;;;;;;;3.80;1.20;;;;;;;37.49;22.51;99289.92;108039;1252;61082;-71
2023/07/28 10:14:37;;;;;;;2.40;1.20;;;;;;;37.46;22.52;99285.88;108114;1253;65078;-71
2023/07/28 10:17:05;;;;;;;1.50;1.00;;;;;;;37.50;22.68;99290.27;108106;1254;61476;-72
2023/07/28 10:19:36;;;;;;;3.10;1.30;;;;;;;37.47;22.29;99288.27;107873;1254;303198;-72
2023/07/28 10:23:56;;;;;;;5.00;1.20;;;;;;;35.23;24.67;99287.49;105112;1286;604318;-72
2023/07/28 10:26:39;;;;;;;1.30;0.90;;;;;;;37.23;23.07;99280.46;107409;1266;59222;-72
2023/07/28 10:29:11;;;;;;;2.80;1.20;;;;;;;37.51;22.47;99278.65;108363;1252;59238;-72
2023/07/28 10:31:53;;;;;;;1.90;1.00;;;;;;;37.54;22.27;99273.47;108467;1254;63398;-70
2023/07/28 10:34:21;;;;;;;2.50;1.20;;;;;;;37.66;22.08;99270.52;108111;1254;61484;-71
2023/07/28 10:37:01;;;;;;;3.30;1.20;;;;;;;37.70;21.87;99270.39;108018;1251;294537;-71
2023/07/28 10:39:27;;;;;;;4.60;1.20;;;;;;;37.89;21.57;99270.36;108295;1251;59122;-71
2023/07/28 10:42:01;;;;;;;2.50;1.20;;;;;;;38.14;21.32;99263.89;108322;1251;59253;-71
2023/07/28 10:44:27;;;;;;;1.80;1.20;;;;;;;38.20;21.33;99267.93;108371;1251;63368;-70
2023/07/28 10:46:54;;;;;;;4.80;1.20;;;;;;;38.24;21.08;99271.64;108302;1251;61633;-72
2023/07/28 10:49:21;;;;;;;2.10;1.40;;;;;;;38.21;20.38;99259.95;108351;1251;62583;-72
2023/07/28 10:51:47;;;;;;;2.50;1.20;;;;;;;38.14;20.53;99266.21;108326;1251;59404;-73
2023/07/28 10:54:16;;;;;;;3.40;1.10;;;;;;;38.17;20.51;99268.98;108169;1254;59561;-72
2023/07/28 10:56:43;;;;;;;5.20;1.30;;;;;;;38.21;20.15;99266.66;108402;1255;64276;-70
2023/07/28 10:59:10;;;;;;;2.80;1.30;;;;;;;38.17;20.35;99268.00;108405;1251;58962;-70
2023/07/28 11:01:38;;;;;;;2.90;1.00;;;;;;;38.33;20.12;99263.31;108288;1251;63821;-71
2023/07/28 11:04:15;;;;;;;5.00;1.00;;;;;;;38.48;19.94;99260.29;108228;1251;59512;-72
2023/07/28 11:06:46;;;;;;;5.60;1.40;;;;;;;38.69;19.89;99257.67;108286;1251;59481;-71
2023/07/28 11:09:14;;;;;;;4.60;1.00;;;;;;;38.92;19.80;99257.59;108280;1251;64226;-71
2023/07/28 11:11:41;;;;;;;3.60;1.30;;;;;;;39.07;19.35;99261.72;108325;1251;61674;-72
2023/07/28 11:14:12;;;;;;;2.60;1.20;;;;;;;39.03;18.94;99263.12;108257;1251;63835;-71
2023/07/28 11:16:41;;;;;;;3.40;1.40;;;;;;;38.84;18.64;99263.40;108190;1251;59404;-71
2023/07/28 11:19:12;;;;;;;2.40;0.90;;;;;;;38.77;18.99;99266.33;108260;1251;59461;-71
2023/07/28 11:21:39;;;;;;;1.90;1.20;;;;;;;38.76;19.31;99271.27;108282;1251;64330;-71
2023/07/28 11:24:06;;;;;;;2.80;1.10;;;;;;;38.71;18.76;99267.27;108269;1251;61377;-73
2023/07/28 11:26:33;;;;;;;2.90;1.30;;;;;;;38.56;18.68;99258.70;108299;1251;62788;-72
2023/07/28 11:29:00;;;;;;;2.10;1.10;;;;;;;38.30;18.99;99262.63;108134;1251;59743;-71
2023/07/28 11:31:27;;;;;;;3.80;1.40;;;;;;;38.07;18.94;99264.92;108271;1256;59613;-72
2023/07/28 11:33:54;;;;;;;1.50;1.30;;;;;;;38.04;19.38;99261.98;108306;1251;63240;-71
2023/07/28 11:36:27;;;;;;;2.70;1.00;;;;;;;37.84;18.84;99261.29;108229;1251;60444;-71